sensor_id;sensor_type;location;lat;lon;timestamp;pressure;altitude;pressure_sealevel;temperature;humidity
70546;BME280;58098;51.680;5.134;2022-12-10T00:00:14;101001.78;;;-3.12;100.00
70546;BME280;58098;51.680;5.134;2022-12-10T00:02:39;101004.34;;;-3.12;100.00
70546;BME280;58098;51.680;5.134;2022-12-10T00:05:05;100994.25;;;-3.17;100.00
70546;BME280;58098;51.680;5.134;2022-12-10T00:07:30;101001.91;;;-3.17;100.00
70546;BME280;58098;51.680;5.134;2022-12-10T00:09:56;100990.28;;;-3.31;100.00
70546;BME280;58098;51.680;5.134;2022-12-10T00:12:21;101005.50;;;-3.27;100.00
70546;BME280;58098;51.680;5.134;2022-12-10T00:14:46;100998.78;;;-3.33;100.00
70546;BME280;58098;51.680;5.134;2022-12-10T00:17:12;100988.66;;;-3.36;100.00
70546;BME280;58098;51.680;5.134;2022-12-10T00:19:37;101008.91;;;-3.28;100.00
70546;BME280;58098;51.680;5.134;2022-12-10T00:22:02;101014.03;;;-3.29;100.00
70546;BME280;58098;51.680;5.134;2022-12-10T00:24:28;101000.53;;;-3.35;100.00
70546;BME280;58098;51.680;5.134;2022-12-10T00:26:53;100999.69;;;-3.35;100.00
70546;BME280;58098;51.680;5.134;2022-12-10T00:29:18;101003.91;;;-3.33;100.00
70546;BME280;58098;51.680;5.134;2022-12-10T00:31:44;101005.59;;;-3.31;100.00
70546;BME280;58098;51.680;5.134;2022-12-10T00:34:11;100993.75;;;-3.34;100.00
70546;BME280;58098;51.680;5.134;2022-12-10T00:36:39;100994.53;;;-3.32;100.00
70546;BME280;58098;51.680;5.134;2022-12-10T00:39:06;101006.19;;;-3.19;100.00
70546;BME280;58098;51.680;5.134;2022-12-10T00:41:31;100995.19;;;-3.22;100.00
70546;BME280;58098;51.680;5.134;2022-12-10T00:43:57;100984.88;;;-3.16;100.00
70546;BME280;58098;51.680;5.134;2022-12-10T00:46:23;101000.75;;;-3.02;100.00
70546;BME280;58098;51.680;5.134;2022-12-10T00:48:48;100996.22;;;-2.91;100.00
70546;BME280;58098;51.680;5.134;2022-12-10T00:51:18;100993.53;;;-2.84;100.00
70546;BME280;58098;51.680;5.134;2022-12-10T00:53:45;100976.59;;;-2.88;100.00
70546;BME280;58098;51.680;5.134;2022-12-10T00:56:12;100944.50;;;-2.98;100.00
70546;BME280;58098;51.680;5.134;2022-12-10T00:58:38;100975.53;;;-2.79;100.00
70546;BME280;58098;51.680;5.134;2022-12-10T01:01:18;100983.00;;;-2.70;100.00
70546;BME280;58098;51.680;5.134;2022-12-10T01:03:45;100934.13;;;-2.92;100.00
70546;BME280;58098;51.680;5.134;2022-12-10T01:06:15;100965.22;;;-2.75;100.00
70546;BME280;58098;51.680;5.134;2022-12-10T01:08:42;100970.97;;;-2.65;100.00
70546;BME280;58098;51.680;5.134;2022-12-10T01:11:09;100972.59;;;-2.62;100.00
70546;BME280;58098;51.680;5.134;2022-12-10T01:13:35;100959.16;;;-2.69;100.00
70546;BME280;58098;51.680;5.134;2022-12-10T01:16:06;100965.06;;;-2.67;100.00
70546;BME280;58098;51.680;5.134;2022-12-10T01:18:32;100972.59;;;-2.61;100.00
70546;BME280;58098;51.680;5.134;2022-12-10T01:21:05;100976.06;;;-2.63;100.00
70546;BME280;58098;51.680;5.134;2022-12-10T01:23:33;100972.53;;;-2.59;100.00
70546;BME280;58098;51.680;5.134;2022-12-10T01:26:00;100975.19;;;-2.64;100.00
70546;BME280;58098;51.680;5.134;2022-12-10T01:28:25;100966.75;;;-2.66;100.00
70546;BME280;58098;51.680;5.134;2022-12-10T01:30:50;100969.31;;;-2.68;100.00
70546;BME280;58098;51.680;5.134;2022-12-10T01:33:16;100963.41;;;-2.70;100.00
70546;BME280;58098;51.680;5.134;2022-12-10T01:35:41;100982.94;;;-2.67;100.00
70546;BME280;58098;51.680;5.134;2022-12-10T01:38:06;100974.50;;;-2.71;100.00
70546;BME280;58098;51.680;5.134;2022-12-10T01:40:37;100980.53;;;-2.73;100.00
70546;BME280;58098;51.680;5.134;2022-12-10T01:43:03;100984.84;;;-2.77;100.00
70546;BME280;58098;51.680;5.134;2022-12-10T01:45:28;100995.06;;;-2.77;100.00
70546;BME280;58098;51.680;5.134;2022-12-10T01:47:54;100993.56;;;-2.87;100.00
70546;BME280;58098;51.680;5.134;2022-12-10T01:50:19;100990.28;;;-2.90;100.00
70546;BME280;58098;51.680;5.134;2022-12-10T01:52:45;101013.09;;;-2.84;100.00
70546;BME280;58098;51.680;5.134;2022-12-10T01:55:47;101010.53;;;-2.83;100.00
70546;BME280;58098;51.680;5.134;2022-12-10T01:58:15;100998.78;;;-2.91;100.00
70546;BME280;58098;51.680;5.134;2022-12-10T02:00:47;101003.03;;;-2.90;100.00
70546;BME280;58098;51.680;5.134;2022-12-10T02:03:20;100997.94;;;-2.90;100.00
70546;BME280;58098;51.680;5.134;2022-12-10T02:05:58;100997.19;;;-2.95;100.00
70546;BME280;58098;51.680;5.134;2022-12-10T02:08:46;100992.13;;;-2.98;100.00
70546;BME280;58098;51.680;5.134;2022-12-10T02:11:46;101018.34;;;-2.90;100.00
70546;BME280;58098;51.680;5.134;2022-12-10T02:14:27;101004.91;;;-2.98;100.00
70546;BME280;58098;51.680;5.134;2022-12-10T02:16:58;101021.75;;;-2.91;100.00
70546;BME280;58098;51.680;5.134;2022-12-10T02:22:00;101019.25;;;-2.94;100.00
70546;BME280;58098;51.680;5.134;2022-12-10T02:24:29;101009.13;;;-2.97;100.00
70546;BME280;58098;51.680;5.134;2022-12-10T02:27:03;101016.63;;;-2.90;100.00
70546;BME280;58098;51.680;5.134;2022-12-10T02:29:30;101014.84;;;-2.86;100.00
70546;BME280;58098;51.680;5.134;2022-12-10T02:32:00;101024.91;;;-2.79;100.00
70546;BME280;58098;51.680;5.134;2022-12-10T02:34:29;101028.28;;;-2.78;100.00
70546;BME280;58098;51.680;5.134;2022-12-10T02:36:57;101021.50;;;-2.79;100.00
70546;BME280;58098;51.680;5.134;2022-12-10T02:39:28;101025.56;;;-2.71;100.00
70546;BME280;58098;51.680;5.134;2022-12-10T02:41:57;101028.03;;;-2.66;100.00
70546;BME280;58098;51.680;5.134;2022-12-10T02:44:27;101010.16;;;-2.66;100.00
70546;BME280;58098;51.680;5.134;2022-12-10T02:46:55;101024.28;;;-2.51;100.00
70546;BME280;58098;51.680;5.134;2022-12-10T02:49:22;101002.28;;;-2.57;100.00
70546;BME280;58098;51.680;5.134;2022-12-10T02:51:49;101007.25;;;-2.51;100.00
70546;BME280;58098;51.680;5.134;2022-12-10T02:54:47;101020.47;;;-2.34;100.00
70546;BME280;58098;51.680;5.134;2022-12-10T03:00:05;101018.63;;;-2.29;100.00
70546;BME280;58098;51.680;5.134;2022-12-10T03:05:15;101014.47;;;-2.33;100.00
70546;BME280;58098;51.680;5.134;2022-12-10T03:10:29;101022.81;;;-2.26;100.00
70546;BME280;58098;51.680;5.134;2022-12-10T03:12:59;101016.91;;;-2.27;100.00
70546;BME280;58098;51.680;5.134;2022-12-10T03:15:27;101006.78;;;-2.31;100.00
70546;BME280;58098;51.680;5.134;2022-12-10T03:17:55;101022.75;;;-2.22;100.00
70546;BME280;58098;51.680;5.134;2022-12-10T03:20:23;101007.47;;;-2.25;100.00
70546;BME280;58098;51.680;5.134;2022-12-10T03:22:50;101009.06;;;-2.21;100.00
70546;BME280;58098;51.680;5.134;2022-12-10T03:25:19;101019.19;;;-2.16;100.00
70546;BME280;58098;51.680;5.134;2022-12-10T03:27:48;101024.19;;;-2.12;100.00
70546;BME280;58098;51.680;5.134;2022-12-10T03:30:15;101014.78;;;-2.10;100.00
70546;BME280;58098;51.680;5.134;2022-12-10T03:32:41;101007.19;;;-2.14;100.00
70546;BME280;58098;51.680;5.134;2022-12-10T03:35:08;100995.50;;;-2.23;100.00
70546;BME280;58098;51.680;5.134;2022-12-10T03:37:34;101004.75;;;-2.19;100.00
70546;BME280;58098;51.680;5.134;2022-12-10T03:40:00;100998.72;;;-2.16;100.00
70546;BME280;58098;51.680;5.134;2022-12-10T03:42:26;101018.97;;;-2.07;100.00
70546;BME280;58098;51.680;5.134;2022-12-10T03:44:51;101011.25;;;-2.06;100.00
70546;BME280;58098;51.680;5.134;2022-12-10T03:47:17;101016.44;;;-2.09;100.00
70546;BME280;58098;51.680;5.134;2022-12-10T03:49:43;101004.63;;;-2.13;100.00
70546;BME280;58098;51.680;5.134;2022-12-10T03:52:10;101006.28;;;-2.12;100.00
70546;BME280;58098;51.680;5.134;2022-12-10T03:54:35;101018.06;;;-2.05;100.00
70546;BME280;58098;51.680;5.134;2022-12-10T03:57:00;101008.94;;;-2.15;100.00
70546;BME280;58098;51.680;5.134;2022-12-10T03:59:26;100999.66;;;-2.19;100.00
70546;BME280;58098;51.680;5.134;2022-12-10T04:01:51;101019.72;;;-2.04;100.00
70546;BME280;58098;51.680;5.134;2022-12-10T04:04:17;101029.94;;;-2.04;100.00
70546;BME280;58098;51.680;5.134;2022-12-10T04:06:42;101014.69;;;-2.07;100.00
70546;BME280;58098;51.680;5.134;2022-12-10T04:09:12;101013.88;;;-2.09;100.00
70546;BME280;58098;51.680;5.134;2022-12-10T04:11:38;101029.88;;;-2.01;100.00
70546;BME280;58098;51.680;5.134;2022-12-10T04:14:03;101011.34;;;-2.09;100.00
70546;BME280;58098;51.680;5.134;2022-12-10T04:16:47;101035.00;;;-2.01;100.00
70546;BME280;58098;51.680;5.134;2022-12-10T04:19:14;101038.41;;;-2.02;100.00
70546;BME280;58098;51.680;5.134;2022-12-10T04:21:41;101011.41;;;-2.12;100.00
70546;BME280;58098;51.680;5.134;2022-12-10T04:24:28;101027.28;;;-1.99;100.00
70546;BME280;58098;51.680;5.134;2022-12-10T04:27:17;101018.97;;;-2.07;100.00
70546;BME280;58098;51.680;5.134;2022-12-10T04:29:44;101018.97;;;-2.07;100.00
70546;BME280;58098;51.680;5.134;2022-12-10T04:32:10;101028.28;;;-2.05;100.00
70546;BME280;58098;51.680;5.134;2022-12-10T04:34:35;101027.38;;;-2.02;100.00
70546;BME280;58098;51.680;5.134;2022-12-10T04:37:02;101028.28;;;-2.05;100.00
70546;BME280;58098;51.680;5.134;2022-12-10T04:39:27;101040.03;;;-1.97;100.00
70546;BME280;58098;51.680;5.134;2022-12-10T04:41:53;101030.72;;;-2.00;100.00
70546;BME280;58098;51.680;5.134;2022-12-10T04:44:18;101025.63;;;-2.00;100.00
70546;BME280;58098;51.680;5.134;2022-12-10T04:46:44;101036.53;;;-1.93;100.00
70546;BME280;58098;51.680;5.134;2022-12-10T04:49:09;101029.66;;;-1.91;100.00
70546;BME280;58098;51.680;5.134;2022-12-10T04:51:35;101022.09;;;-1.96;100.00
70546;BME280;58098;51.680;5.134;2022-12-10T04:54:00;101038.03;;;-1.86;100.00
70546;BME280;58098;51.680;5.134;2022-12-10T04:56:26;101011.19;;;-2.03;100.00
70546;BME280;58098;51.680;5.134;2022-12-10T04:58:52;101038.22;;;-1.92;100.00
70546;BME280;58098;51.680;5.134;2022-12-10T05:01:17;101027.88;;;-1.89;100.00
70546;BME280;58098;51.680;5.134;2022-12-10T05:03:44;101029.66;;;-1.91;100.00
70546;BME280;58098;51.680;5.134;2022-12-10T05:06:11;101038.03;;;-1.86;100.00
70546;BME280;58098;51.680;5.134;2022-12-10T05:08:38;101044.75;;;-1.82;100.00
70546;BME280;58098;51.680;5.134;2022-12-10T05:11:07;101033.00;;;-1.89;100.00
70546;BME280;58098;51.680;5.134;2022-12-10T05:13:32;101043.03;;;-1.82;100.00
70546;BME280;58098;51.680;5.134;2022-12-10T05:16:01;101028.81;;;-1.92;100.00
70546;BME280;58098;51.680;5.134;2022-12-10T05:18:26;101044.84;;;-1.85;100.00
70546;BME280;58098;51.680;5.134;2022-12-10T05:20:52;101041.41;;;-1.84;100.00
70546;BME280;58098;51.680;5.134;2022-12-10T05:23:17;101041.31;;;-1.81;100.00
70546;BME280;58098;51.680;5.134;2022-12-10T05:28:27;101024.59;;;-1.94;100.00
70546;BME280;58098;51.680;5.134;2022-12-10T05:30:53;101038.09;;;-1.88;100.00
70546;BME280;58098;51.680;5.134;2022-12-10T05:33:18;101034.75;;;-1.91;100.00
70546;BME280;58098;51.680;5.134;2022-12-10T05:35:51;101045.59;;;-1.82;100.00
70546;BME280;58098;51.680;5.134;2022-12-10T05:38:16;101033.16;;;-1.95;100.00
70546;BME280;58098;51.680;5.134;2022-12-10T05:40:42;101050.78;;;-1.85;100.00
70546;BME280;58098;51.680;5.134;2022-12-10T05:43:07;101045.75;;;-1.88;100.00
70546;BME280;58098;51.680;5.134;2022-12-10T05:45:32;101038.88;;;-1.86;100.00
70546;BME280;58098;51.680;5.134;2022-12-10T05:47:58;101039.81;;;-1.88;100.00
70546;BME280;58098;51.680;5.134;2022-12-10T05:50:23;101036.38;;;-1.87;100.00
70546;BME280;58098;51.680;5.134;2022-12-10T05:52:50;101041.38;;;-1.83;100.00
70546;BME280;58098;51.680;5.134;2022-12-10T05:55:16;101037.25;;;-1.88;100.00
70546;BME280;58098;51.680;5.134;2022-12-10T05:57:41;101044.84;;;-1.85;100.00
70546;BME280;58098;51.680;5.134;2022-12-10T06:00:07;101046.38;;;-1.80;100.00
70546;BME280;58098;51.680;5.134;2022-12-10T06:02:33;101047.44;;;-1.87;100.00
70546;BME280;58098;51.680;5.134;2022-12-10T06:04:58;101039.88;;;-1.91;100.00
70546;BME280;58098;51.680;5.134;2022-12-10T06:07:24;101045.84;;;-1.91;100.00
70546;BME280;58098;51.680;5.134;2022-12-10T06:09:50;101042.59;;;-1.97;100.00
70546;BME280;58098;51.680;5.134;2022-12-10T06:12:15;101061.91;;;-1.86;100.00
70546;BME280;58098;51.680;5.134;2022-12-10T06:14:40;101064.34;;;-1.81;100.00
70546;BME280;58098;51.680;5.134;2022-12-10T06:17:06;101054.47;;;-1.95;100.00
70546;BME280;58098;51.680;5.134;2022-12-10T06:19:31;101067.94;;;-1.88;100.00
70546;BME280;58098;51.680;5.134;2022-12-10T06:21:56;101054.47;;;-1.95;100.00
70546;BME280;58098;51.680;5.134;2022-12-10T06:24:23;101073.84;;;-1.86;100.00
70546;BME280;58098;51.680;5.134;2022-12-10T06:26:49;101062.88;;;-1.90;100.00
70546;BME280;58098;51.680;5.134;2022-12-10T06:29:14;101073.00;;;-1.87;100.00
70546;BME280;58098;51.680;5.134;2022-12-10T06:31:39;101073.84;;;-1.86;100.00
70546;BME280;58098;51.680;5.134;2022-12-10T06:34:05;101073.09;;;-1.90;100.00
70546;BME280;58098;51.680;5.134;2022-12-10T06:36:30;101076.44;;;-1.88;100.00
70546;BME280;58098;51.680;5.134;2022-12-10T06:38:56;101077.28;;;-1.87;100.00
70546;BME280;58098;51.680;5.134;2022-12-10T06:41:21;101063.84;;;-1.95;100.00
70546;BME280;58098;51.680;5.134;2022-12-10T06:43:47;101072.38;;;-1.96;100.00
70546;BME280;58098;51.680;5.134;2022-12-10T06:46:15;101091.06;;;-1.93;100.00
70546;BME280;58098;51.680;5.134;2022-12-10T06:48:41;101085.16;;;-1.96;100.00
70546;BME280;58098;51.680;5.134;2022-12-10T06:51:08;101085.94;;;-1.93;100.00
70546;BME280;58098;51.680;5.134;2022-12-10T06:53:35;101066.53;;;-2.02;100.00
70546;BME280;58098;51.680;5.134;2022-12-10T06:56:02;101081.63;;;-1.91;100.00
70546;BME280;58098;51.680;5.134;2022-12-10T06:58:29;101075.72;;;-1.94;100.00
70546;BME280;58098;51.680;5.134;2022-12-10T07:01:05;101076.50;;;-1.91;100.00
70546;BME280;58098;51.680;5.134;2022-12-10T07:03:30;101079.00;;;-1.89;100.00
70546;BME280;58098;51.680;5.134;2022-12-10T07:06:00;101078.28;;;-1.93;100.00
70546;BME280;58098;51.680;5.134;2022-12-10T07:08:26;101085.88;;;-1.90;100.00
70546;BME280;58098;51.680;5.134;2022-12-10T07:10:52;101091.16;;;-1.97;100.00
70546;BME280;58098;51.680;5.134;2022-12-10T07:13:17;101090.28;;;-1.96;100.00
70546;BME280;58098;51.680;5.134;2022-12-10T07:15:42;101090.28;;;-1.96;100.00
70546;BME280;58098;51.680;5.134;2022-12-10T07:18:08;101081.06;;;-2.04;100.00
70546;BME280;58098;51.680;5.134;2022-12-10T07:20:33;101090.34;;;-2.00;100.00
70546;BME280;58098;51.680;5.134;2022-12-10T07:22:58;101082.81;;;-2.06;100.00
70546;BME280;58098;51.680;5.134;2022-12-10T07:25:24;101086.28;;;-2.08;100.00
70546;BME280;58098;51.680;5.134;2022-12-10T07:27:49;101100.50;;;-1.96;100.00
70546;BME280;58098;51.680;5.134;2022-12-10T07:30:14;101094.69;;;-2.03;100.00
70546;BME280;58098;51.680;5.134;2022-12-10T07:32:39;101099.88;;;-2.06;100.00
70546;BME280;58098;51.680;5.134;2022-12-10T07:35:05;101113.31;;;-1.98;100.00
70546;BME280;58098;51.680;5.134;2022-12-10T07:37:30;101095.66;;;-2.09;100.00
70546;BME280;58098;51.680;5.134;2022-12-10T07:39:56;101082.25;;;-2.17;100.00
70546;BME280;58098;51.680;5.134;2022-12-10T07:42:21;101104.97;;;-2.05;100.00
70546;BME280;58098;51.680;5.134;2022-12-10T07:44:48;101098.38;;;-2.15;100.00
70546;BME280;58098;51.680;5.134;2022-12-10T07:47:13;101106.78;;;-2.10;100.00
70546;BME280;58098;51.680;5.134;2022-12-10T07:49:39;101108.31;;;-2.03;100.00
70546;BME280;58098;51.680;5.134;2022-12-10T07:52:04;101119.22;;;-1.96;100.00
70546;BME280;58098;51.680;5.134;2022-12-10T07:54:29;101113.34;;;-2.00;100.00
70546;BME280;58098;51.680;5.134;2022-12-10T07:56:55;101109.97;;;-2.00;100.00
70546;BME280;58098;51.680;5.134;2022-12-10T07:59:20;101119.28;;;-1.97;100.00
70546;BME280;58098;51.680;5.134;2022-12-10T08:01:45;101126.06;;;-1.96;100.00
70546;BME280;58098;51.680;5.134;2022-12-10T08:04:11;101116.78;;;-2.01;100.00
70546;BME280;58098;51.680;5.134;2022-12-10T08:06:36;101135.25;;;-1.89;100.00
70546;BME280;58098;51.680;5.134;2022-12-10T08:09:01;101132.69;;;-1.88;100.00
70546;BME280;58098;51.680;5.134;2022-12-10T08:11:27;101133.53;;;-1.87;100.00
70546;BME280;58098;51.680;5.134;2022-12-10T08:13:53;101139.50;;;-1.88;100.00
70546;BME280;58098;51.680;5.134;2022-12-10T08:16:20;101146.31;;;-1.87;100.00
70546;BME280;58098;51.680;5.134;2022-12-10T08:18:50;101152.13;;;-1.81;100.00
70546;BME280;58098;51.680;5.134;2022-12-10T08:21:19;101148.66;;;-1.78;100.00
70546;BME280;58098;51.680;5.134;2022-12-10T08:23:45;101136.72;;;-1.79;100.00
70546;BME280;58098;51.680;5.134;2022-12-10T08:26:14;101141.91;;;-1.82;100.00
70546;BME280;58098;51.680;5.134;2022-12-10T08:28:39;101142.81;;;-1.83;100.00
70546;BME280;58098;51.680;5.134;2022-12-10T08:31:05;101161.38;;;-1.77;100.00
70546;BME280;58098;51.680;5.134;2022-12-10T08:33:35;101157.19;;;-1.79;100.00
70546;BME280;58098;51.680;5.134;2022-12-10T08:36:02;101153.69;;;-1.75;100.00
70546;BME280;58098;51.680;5.134;2022-12-10T08:38:27;101157.13;;;-1.76;100.00
70546;BME280;58098;51.680;5.134;2022-12-10T08:40:53;101166.25;;;-1.66;100.00
70546;BME280;58098;51.680;5.134;2022-12-10T08:43:18;101165.53;;;-1.71;100.00
70546;BME280;58098;51.680;5.134;2022-12-10T08:45:43;101169.69;;;-1.67;100.00
70546;BME280;58098;51.680;5.134;2022-12-10T08:48:09;101125.88;;;-1.89;100.00
70546;BME280;58098;51.680;5.134;2022-12-10T08:50:36;101160.53;;;-1.76;100.00
70546;BME280;58098;51.680;5.134;2022-12-10T08:53:02;101164.78;;;-1.76;100.00
70546;BME280;58098;51.680;5.134;2022-12-10T08:55:27;101172.41;;;-1.73;100.00
70546;BME280;58098;51.680;5.134;2022-12-10T08:57:52;101182.47;;;-1.66;100.00
70546;BME280;58098;51.680;5.134;2022-12-10T09:00:17;101169.97;;;-1.79;100.00
70546;BME280;58098;51.680;5.134;2022-12-10T09:02:44;101184.22;;;-1.69;100.00
70546;BME280;58098;51.680;5.134;2022-12-10T09:05:09;101179.97;;;-1.69;100.00
70546;BME280;58098;51.680;5.134;2022-12-10T09:07:35;101186.63;;;-1.62;100.00
70546;BME280;58098;51.680;5.134;2022-12-10T09:10:00;101183.25;;;-1.64;100.00
70546;BME280;58098;51.680;5.134;2022-12-10T09:12:25;101183.22;;;-1.62;100.00
70546;BME280;58098;51.680;5.134;2022-12-10T09:14:51;101157.91;;;-1.74;100.00
70546;BME280;58098;51.680;5.134;2022-12-10T09:17:16;101169.63;;;-1.64;100.00
70546;BME280;58098;51.680;5.134;2022-12-10T09:19:41;101183.03;;;-1.55;100.00
70546;BME280;58098;51.680;5.134;2022-12-10T09:22:07;101173.88;;;-1.63;100.00
70546;BME280;58098;51.680;5.134;2022-12-10T09:24:33;101183.88;;;-1.54;100.00
70546;BME280;58098;51.680;5.134;2022-12-10T09:27:02;101172.75;;;-1.53;100.00
70546;BME280;58098;51.680;5.134;2022-12-10T09:29:28;101188.63;;;-1.39;100.00
70546;BME280;58098;51.680;5.134;2022-12-10T09:31:54;101199.59;;;-1.34;100.00
70546;BME280;58098;51.680;5.134;2022-12-10T09:34:20;101185.88;;;-1.31;100.00
70546;BME280;58098;51.680;5.134;2022-12-10T09:36:46;101189.13;;;-1.26;100.00
70546;BME280;58098;51.680;5.134;2022-12-10T09:39:12;101163.09;;;-1.42;100.00
70546;BME280;58098;51.680;5.134;2022-12-10T09:41:41;101190.16;;;-1.34;100.00
70546;BME280;58098;51.680;5.134;2022-12-10T09:46:55;101186.69;;;-1.31;100.00
70546;BME280;58098;51.680;5.134;2022-12-10T09:52:04;101164.81;;;-1.43;100.00
70546;BME280;58098;51.680;5.134;2022-12-10T09:54:33;101193.34;;;-1.24;100.00
70546;BME280;58098;51.680;5.134;2022-12-10T09:57:00;101189.13;;;-1.26;100.00
70546;BME280;58098;51.680;5.134;2022-12-10T09:59:32;101202.59;;;-1.18;100.00
70546;BME280;58098;51.680;5.134;2022-12-10T10:04:30;101195.19;;;-1.29;100.00
70546;BME280;58098;51.680;5.134;2022-12-10T10:06:56;101195.28;;;-1.32;100.00
70546;BME280;58098;51.680;5.134;2022-12-10T10:09:21;101203.63;;;-1.25;100.00
70546;BME280;58098;51.680;5.134;2022-12-10T10:11:47;101212.81;;;-1.17;100.00
70546;BME280;58098;51.680;5.134;2022-12-10T10:14:24;101213.44;;;-1.09;100.00
70546;BME280;58098;51.680;5.134;2022-12-10T10:16:54;101220.88;;;-1.00;100.00
70546;BME280;58098;51.680;5.134;2022-12-10T10:19:28;101218.25;;;-0.97;100.00
70546;BME280;58098;51.680;5.134;2022-12-10T10:21:55;101209.78;;;-0.99;100.00
70546;BME280;58098;51.680;5.134;2022-12-10T10:24:28;101202.34;;;-1.09;100.00
70546;BME280;58098;51.680;5.134;2022-12-10T10:27:46;101228.34;;;-0.91;100.00
70546;BME280;58098;51.680;5.134;2022-12-10T10:29:49;101209.13;;;-1.07;100.00
70546;BME280;58098;51.680;5.134;2022-12-10T10:32:19;101221.72;;;-0.98;100.00
70546;BME280;58098;51.680;5.134;2022-12-10T10:34:46;101233.69;;;-1.00;100.00
70546;BME280;58098;51.680;5.134;2022-12-10T10:37:21;101229.41;;;-0.99;100.00
70546;BME280;58098;51.680;5.134;2022-12-10T10:39:48;101199.91;;;-1.12;100.00
70546;BME280;58098;51.680;5.134;2022-12-10T10:42:25;101217.53;;;-1.02;100.00
70546;BME280;58098;51.680;5.134;2022-12-10T10:44:52;101216.72;;;-1.02;100.00
70546;BME280;58098;51.680;5.134;2022-12-10T10:47:26;101208.97;;;-1.01;100.00
70546;BME280;58098;51.680;5.134;2022-12-10T10:49:52;101224.06;;;-0.90;100.00
70546;BME280;58098;51.680;5.134;2022-12-10T10:52:18;101205.44;;;-0.95;100.00
70546;BME280;58098;51.680;5.134;2022-12-10T10:54:44;101222.91;;;-0.79;100.00
70546;BME280;58098;51.680;5.134;2022-12-10T10:57:31;101211.03;;;-0.83;100.00
70546;BME280;58098;51.680;5.134;2022-12-10T11:00:18;101229.78;;;-0.81;100.00
70546;BME280;58098;51.680;5.134;2022-12-10T11:02:44;101224.69;;;-0.81;100.00
70546;BME280;58098;51.680;5.134;2022-12-10T11:05:24;101214.44;;;-0.81;100.00
70546;BME280;58098;51.680;5.134;2022-12-10T11:10:28;101193.22;;;-0.86;100.00
70546;BME280;58098;51.680;5.134;2022-12-10T11:12:55;101214.25;;;-0.75;100.00
70546;BME280;58098;51.680;5.134;2022-12-10T11:17:48;101212.41;;;-0.70;100.00
70546;BME280;58098;51.680;5.134;2022-12-10T11:20:21;101203.00;;;-0.69;100.00
70546;BME280;58098;51.680;5.134;2022-12-10T11:22:56;101187.91;;;-0.80;100.00
70546;BME280;58098;51.680;5.134;2022-12-10T11:25:38;101213.50;;;-0.78;100.00
70546;BME280;58098;51.680;5.134;2022-12-10T11:33:58;101193.94;;;-0.81;100.00
70546;BME280;58098;51.680;5.134;2022-12-10T11:42:11;101211.66;;;-0.73;100.00
70546;BME280;58098;51.680;5.134;2022-12-10T11:44:53;101202.34;;;-0.76;100.00
70546;BME280;58098;51.680;5.134;2022-12-10T11:52:56;101210.41;;;-0.58;100.00
70546;BME280;58098;51.680;5.134;2022-12-10T12:01:21;101205.38;;;-0.61;100.00
70546;BME280;58098;51.680;5.134;2022-12-10T12:08:58;101212.13;;;-0.59;100.00
70546;BME280;58098;51.680;5.134;2022-12-10T12:14:18;101205.25;;;-0.57;100.00
70546;BME280;58098;51.680;5.134;2022-12-10T12:17:10;101189.72;;;-0.52;100.00
70546;BME280;58098;51.680;5.134;2022-12-10T12:19:46;101188.00;;;-0.52;100.00
70546;BME280;58098;51.680;5.134;2022-12-10T12:22:22;101192.28;;;-0.52;100.00
70546;BME280;58098;51.680;5.134;2022-12-10T12:24:48;101202.47;;;-0.49;100.00
70546;BME280;58098;51.680;5.134;2022-12-10T12:27:27;101209.38;;;-0.53;100.00
70546;BME280;58098;51.680;5.134;2022-12-10T12:30:10;101204.31;;;-0.54;100.00
70546;BME280;58098;51.680;5.134;2022-12-10T12:33:01;101194.94;;;-0.55;100.00
70546;BME280;58098;51.680;5.134;2022-12-10T12:35:40;101184.66;;;-0.54;100.00
70546;BME280;58098;51.680;5.134;2022-12-10T12:38:28;101197.06;;;-0.40;100.00
70546;BME280;58098;51.680;5.134;2022-12-10T12:41:07;101187.13;;;-0.51;100.00
70546;BME280;58098;51.680;5.134;2022-12-10T12:46:01;101188.94;;;-0.54;100.00
70546;BME280;58098;51.680;5.134;2022-12-10T12:51:21;101183.03;;;-0.58;100.00
70546;BME280;58098;51.680;5.134;2022-12-10T12:53:48;101197.34;;;-0.49;100.00
70546;BME280;58098;51.680;5.134;2022-12-10T13:01:39;101183.03;;;-0.56;100.00
70546;BME280;58098;51.680;5.134;2022-12-10T13:04:06;101194.81;;;-0.51;100.00
70546;BME280;58098;51.680;5.134;2022-12-10T13:06:36;101198.13;;;-0.47;100.00
70546;BME280;58098;51.680;5.134;2022-12-10T13:11:37;101194.56;;;-0.42;100.00
70546;BME280;58098;51.680;5.134;2022-12-10T13:27:32;101214.84;;;-0.34;100.00
70546;BME280;58098;51.680;5.134;2022-12-10T13:32:53;101211.03;;;-0.50;100.00
70546;BME280;58098;51.680;5.134;2022-12-10T13:35:31;101207.47;;;-0.45;100.00
70546;BME280;58098;51.680;5.134;2022-12-10T13:38:04;101216.59;;;-0.36;100.00
70546;BME280;58098;51.680;5.134;2022-12-10T13:43:25;101227.44;;;-0.27;100.00
70546;BME280;58098;51.680;5.134;2022-12-10T13:49:18;101215.47;;;-0.26;100.00
70546;BME280;58098;51.680;5.134;2022-12-10T14:05:18;101230.69;;;-0.20;100.00
70546;BME280;58098;51.680;5.134;2022-12-10T14:07:50;101235.31;;;-0.33;100.00
70546;BME280;58098;51.680;5.134;2022-12-10T14:10:20;101237.09;;;-0.36;100.00
70546;BME280;58098;51.680;5.134;2022-12-10T14:12:47;101251.53;;;-0.32;100.00
70546;BME280;58098;51.680;5.134;2022-12-10T14:15:25;101243.78;;;-0.29;100.00
70546;BME280;58098;51.680;5.134;2022-12-10T14:17:59;101243.78;;;-0.29;100.00
70546;BME280;58098;51.680;5.134;2022-12-10T14:20:29;101243.66;;;-0.26;100.00
70546;BME280;58098;51.680;5.134;2022-12-10T14:22:56;101235.25;;;-0.31;100.00
70546;BME280;58098;51.680;5.134;2022-12-10T14:25:46;101243.56;;;-0.23;100.00
70546;BME280;58098;51.680;5.134;2022-12-10T14:28:16;101250.41;;;-0.22;100.00
70546;BME280;58098;51.680;5.134;2022-12-10T14:30:44;101252.19;;;-0.26;100.00
70546;BME280;58098;51.680;5.134;2022-12-10T14:33:13;101237.94;;;-0.34;100.00